Time;durP1;ratioP1;P1;durP2;ratioP2;P2;SDS_P1;SDS_P2;PMS_P1;PMS_P2;Temp;Humidity;BMP_temperature;BMP_pressure;BME280_temperature;BME280_humidity;BME280_pressure;Samples;Min_cycle;Max_cycle;Signal;HPM_P1;HPM_P2
2020/12/18 00:00:36;;;;;;;15.38;9.38;;;6.20;95.90;;;;;;4988737;28;20053;-89
2020/12/18 00:03:02;;;;;;;19.33;9.55;;;6.20;95.90;;;;;;4973684;28;20125;-89
2020/12/18 00:05:32;;;;;;;18.67;9.77;;;6.20;95.90;;;;;;4986612;28;20045;-89
2020/12/18 00:07:58;;;;;;;23.83;9.82;;;6.10;95.90;;;;;;4989777;28;20037;-89
2020/12/18 00:10:26;;;;;;;22.13;10.15;;;6.10;95.90;;;;;;4987353;28;20093;-88
2020/12/18 00:12:52;;;;;;;18.63;9.32;;;6.10;96.00;;;;;;4992202;28;20027;-89
2020/12/18 00:15:17;;;;;;;16.25;10.13;;;6.10;96.10;;;;;;4991655;28;20026;-89
2020/12/18 00:17:43;;;;;;;19.95;10.10;;;6.10;96.10;;;;;;4991875;28;20034;-89
2020/12/18 00:20:08;;;;;;;18.40;9.85;;;6.10;96.10;;;;;;4995158;28;20514;-89
2020/12/18 00:22:34;;;;;;;20.83;9.88;;;6.10;96.10;;;;;;4997490;28;20034;-89
2020/12/18 00:24:59;;;;;;;21.05;9.88;;;6.10;96.20;;;;;;4995707;28;20161;-89
2020/12/18 00:27:25;;;;;;;18.65;10.55;;;6.00;96.10;;;;;;4996830;28;20026;-89
2020/12/18 00:29:50;;;;;;;20.30;9.35;;;6.00;96.10;;;;;;4994567;28;20104;-89
2020/12/18 00:32:16;;;;;;;18.95;10.48;;;6.00;96.20;;;;;;4995474;28;20038;-89
2020/12/18 00:34:42;;;;;;;17.13;9.65;;;6.00;96.30;;;;;;4977379;28;20483;-88
2020/12/18 00:37:07;;;;;;;23.85;11.15;;;6.00;96.40;;;;;;4977947;28;20106;-88
2020/12/18 00:39:33;;;;;;;18.73;10.50;;;6.00;96.40;;;;;;4990704;28;20038;-89
2020/12/18 00:41:58;;;;;;;17.63;9.35;;;6.00;96.40;;;;;;4991778;28;20505;-89
2020/12/18 00:44:24;;;;;;;19.88;10.60;;;6.00;96.40;;;;;;4995257;28;20054;-89
2020/12/18 00:46:49;;;;;;;17.60;8.60;;;6.00;96.40;;;;;;4996830;28;20077;-89
2020/12/18 00:49:15;;;;;;;19.45;8.93;;;6.00;96.40;;;;;;4997313;28;20041;-89
2020/12/18 00:51:40;;;;;;;23.88;9.80;;;6.00;96.40;;;;;;4992578;28;20030;-89
2020/12/18 00:54:07;;;;;;;15.45;9.18;;;5.90;96.40;;;;;;4988943;28;20055;-89
2020/12/18 00:56:32;;;;;;;19.15;9.35;;;5.90;96.40;;;;;;5001284;28;20030;-88
2020/12/18 00:58:58;;;;;;;21.55;9.88;;;5.90;96.40;;;;;;4982953;28;20117;-89
2020/12/18 01:01:23;;;;;;;23.60;10.32;;;5.90;96.50;;;;;;4992837;28;20054;-89
2020/12/18 01:03:49;;;;;;;16.90;9.02;;;5.80;96.40;;;;;;4994265;28;20518;-89
2020/12/18 01:06:16;;;;;;;16.92;9.38;;;5.80;96.50;;;;;;4998720;28;20030;-89
2020/12/18 01:08:42;;;;;;;20.15;8.65;;;5.80;96.50;;;;;;4995903;28;20030;-89
2020/12/18 01:11:07;;;;;;;16.80;9.02;;;5.80;96.60;;;;;;4995041;28;20041;-88
2020/12/18 01:13:33;;;;;;;23.02;9.63;;;5.80;96.60;;;;;;4993658;28;20088;-88
2020/12/18 01:16:00;;;;;;;15.63;9.27;;;5.90;96.60;;;;;;4992470;28;20054;-89
2020/12/18 01:18:26;;;;;;;19.02;9.68;;;5.80;96.60;;;;;;4995722;28;20030;-89
2020/12/18 01:20:52;;;;;;;18.65;8.82;;;5.80;96.60;;;;;;4992568;28;20053;-89
2020/12/18 01:23:18;;;;;;;22.05;9.93;;;5.70;96.60;;;;;;4994321;28;20031;-89
2020/12/18 01:25:44;;;;;;;23.42;10.73;;;5.70;96.70;;;;;;4990983;28;20027;-89
2020/12/18 01:28:10;;;;;;;15.80;8.35;;;5.80;96.70;;;;;;4992702;28;20033;-89
2020/12/18 01:30:36;;;;;;;27.95;9.55;;;5.80;96.70;;;;;;4992165;28;20390;-89
2020/12/18 01:33:02;;;;;;;20.35;10.23;;;5.70;96.70;;;;;;4990702;28;20037;-89
2020/12/18 01:35:27;;;;;;;20.30;10.00;;;5.70;96.70;;;;;;4994740;28;20113;-90
2020/12/18 01:37:53;;;;;;;19.02;8.65;;;5.80;96.70;;;;;;4987613;28;20045;-89
2020/12/18 01:40:19;;;;;;;14.93;8.40;;;5.80;96.70;;;;;;4993454;28;20026;-89
2020/12/18 01:42:44;;;;;;;22.02;9.90;;;5.70;96.70;;;;;;4993781;28;20030;-90
2020/12/18 01:45:10;;;;;;;20.95;9.57;;;5.70;96.70;;;;;;4993422;28;20064;-89
2020/12/18 01:47:35;;;;;;;18.80;9.43;;;5.70;96.70;;;;;;4979251;28;20032;-88
2020/12/18 01:50:02;;;;;;;18.63;8.63;;;5.70;96.70;;;;;;4993916;28;20122;-89
2020/12/18 01:52:29;;;;;;;23.30;11.02;;;5.70;96.80;;;;;;4992690;28;20038;-88
2020/12/18 01:54:59;;;;;;;15.25;8.60;;;5.70;96.90;;;;;;4994316;28;20029;-88
2020/12/18 01:57:25;;;;;;;15.85;7.80;;;5.70;96.80;;;;;;4995331;28;20026;-88
2020/12/18 01:59:53;;;;;;;15.27;8.85;;;5.70;96.80;;;;;;4991604;28;20089;-89
2020/12/18 02:02:19;;;;;;;21.00;9.32;;;5.70;96.80;;;;;;4977757;28;20046;-89
2020/12/18 02:04:47;;;;;;;16.50;8.65;;;5.70;96.80;;;;;;4991543;28;20562;-90
2020/12/18 02:07:13;;;;;;;26.35;9.75;;;5.60;96.80;;;;;;4990462;28;20174;-89
2020/12/18 02:09:40;;;;;;;20.30;9.38;;;5.60;96.80;;;;;;4995018;28;20030;-89
2020/12/18 02:12:05;;;;;;;24.92;8.65;;;5.70;96.90;;;;;;4991426;28;20113;-89
2020/12/18 02:14:31;;;;;;;20.42;9.35;;;5.60;96.80;;;;;;4994463;28;20116;-89
2020/12/18 02:16:57;;;;;;;25.42;9.38;;;5.60;96.80;;;;;;4993653;28;20100;-89
2020/12/18 02:19:29;;;;;;;15.68;8.07;;;5.60;96.90;;;;;;4994619;28;20069;-89
2020/12/18 02:21:55;;;;;;;15.88;8.27;;;5.60;96.90;;;;;;4991431;28;20026;-88
2020/12/18 02:24:28;;;;;;;19.70;7.57;;;5.60;96.90;;;;;;4994528;28;20129;-89
2020/12/18 02:26:57;;;;;;;20.75;9.07;;;5.60;96.90;;;;;;4992367;28;20069;-90
2020/12/18 02:29:22;;;;;;;18.15;8.68;;;5.60;97.30;;;;;;4989760;28;20030;-89
2020/12/18 02:31:51;;;;;;;18.25;7.25;;;5.60;97.00;;;;;;4988374;28;20035;-90
2020/12/18 02:34:26;;;;;;;18.77;7.60;;;5.60;97.00;;;;;;4978812;28;20038;-90
2020/12/18 02:36:51;;;;;;;20.25;8.23;;;5.60;97.00;;;;;;4985131;28;20153;-89
2020/12/18 02:39:17;;;;;;;16.42;8.10;;;5.60;96.90;;;;;;4988623;28;20109;-89
2020/12/18 02:41:43;;;;;;;17.35;8.35;;;5.60;97.00;;;;;;4986332;28;20022;-89
2020/12/18 02:44:09;;;;;;;26.67;8.90;;;5.60;97.00;;;;;;4992871;28;20403;-88
2020/12/18 02:46:34;;;;;;;18.75;8.77;;;5.60;97.10;;;;;;5009202;28;20045;-89
2020/12/18 02:49:00;;;;;;;16.80;7.65;;;5.70;97.10;;;;;;4995680;28;20022;-90
2020/12/18 02:51:25;;;;;;;19.48;8.80;;;5.70;97.10;;;;;;4975411;28;20037;-89
2020/12/18 02:53:51;;;;;;;17.77;8.73;;;5.60;97.00;;;;;;4990615;28;20125;-89
2020/12/18 02:56:24;;;;;;;14.82;7.90;;;5.60;97.00;;;;;;4987497;28;20031;-89
2020/12/18 02:58:50;;;;;;;18.60;7.55;;;5.70;97.10;;;;;;4980368;28;20049;-89
2020/12/18 03:01:15;;;;;;;18.23;7.88;;;5.60;97.00;;;;;;4994053;28;20487;-89
2020/12/18 03:03:41;;;;;;;21.35;8.07;;;5.60;97.10;;;;;;4993542;28;20094;-89
2020/12/18 03:06:06;;;;;;;21.77;8.48;;;5.70;97.10;;;;;;4985191;28;20030;-90
2020/12/18 03:08:32;;;;;;;18.08;9.32;;;5.70;97.10;;;;;;4987590;28;20066;-89
2020/12/18 03:10:57;;;;;;;17.85;7.20;;;5.60;97.10;;;;;;4984776;28;20049;-89
2020/12/18 03:13:23;;;;;;;20.15;8.45;;;5.70;97.10;;;;;;4993498;28;20046;-89
2020/12/18 03:15:48;;;;;;;18.17;7.93;;;5.70;97.10;;;;;;4988506;28;20023;-89
2020/12/18 03:18:14;;;;;;;21.85;8.13;;;5.70;97.10;;;;;;4992728;28;20113;-90
2020/12/18 03:20:39;;;;;;;14.38;7.82;;;5.70;97.20;;;;;;4984664;28;20034;-90
2020/12/18 03:23:05;;;;;;;16.15;7.63;;;5.70;97.10;;;;;;4979528;28;20030;-89
2020/12/18 03:25:30;;;;;;;18.38;7.65;;;5.70;97.10;;;;;;4994245;28;20023;-89
2020/12/18 03:27:56;;;;;;;15.73;6.60;;;5.70;97.10;;;;;;4993312;28;20030;-89
2020/12/18 03:30:21;;;;;;;20.15;7.95;;;5.70;97.10;;;;;;4988085;28;20073;-89
2020/12/18 03:32:47;;;;;;;17.30;7.35;;;5.70;97.10;;;;;;4982106;28;20042;-89
2020/12/18 03:35:13;;;;;;;21.83;7.93;;;5.70;97.20;;;;;;4989917;28;20025;-89
2020/12/18 03:37:39;;;;;;;15.40;6.65;;;5.70;97.20;;;;;;4989732;28;20119;-89
2020/12/18 03:40:05;;;;;;;18.52;8.00;;;5.70;97.10;;;;;;4992146;28;20041;-89
2020/12/18 03:42:30;;;;;;;10.90;6.55;;;5.70;97.10;;;;;;4985389;28;20026;-89
2020/12/18 03:44:56;;;;;;;22.52;8.38;;;5.60;97.10;;;;;;4979585;28;20053;-89
2020/12/18 03:47:21;;;;;;;23.55;8.57;;;5.60;97.10;;;;;;4985809;28;20034;-89
2020/12/18 03:49:47;;;;;;;15.18;6.60;;;5.60;97.10;;;;;;4992286;28;20042;-89
2020/12/18 03:52:13;;;;;;;18.83;6.50;;;5.60;97.10;;;;;;4976275;28;20073;-90
2020/12/18 03:54:38;;;;;;;17.27;6.93;;;5.60;97.20;;;;;;4988018;28;20038;-90
2020/12/18 03:57:04;;;;;;;16.35;7.43;;;5.60;97.10;;;;;;5000635;28;20081;-89
2020/12/18 03:59:29;;;;;;;16.10;6.90;;;5.60;97.10;;;;;;4986459;28;20030;-90
2020/12/18 04:01:54;;;;;;;15.07;6.85;;;5.60;97.10;;;;;;4974665;28;20023;-89
2020/12/18 04:04:22;;;;;;;17.58;7.15;;;5.60;97.10;;;;;;4987511;28;20043;-90
2020/12/18 04:06:48;;;;;;;16.38;6.57;;;5.60;97.10;;;;;;4992599;28;20022;-89
2020/12/18 04:09:13;;;;;;;15.90;6.72;;;5.60;97.10;;;;;;4985038;28;20026;-89
2020/12/18 04:11:41;;;;;;;15.70;6.60;;;5.50;97.10;;;;;;4992734;28;20033;-90
2020/12/18 04:14:07;;;;;;;19.20;6.90;;;5.50;97.10;;;;;;4985124;28;20034;-90
2020/12/18 04:16:33;;;;;;;14.80;7.30;;;5.50;97.10;;;;;;4984031;28;20026;-90
2020/12/18 04:18:59;;;;;;;19.83;6.95;;;5.50;97.10;;;;;;4986886;28;20031;-89
2020/12/18 04:21:24;;;;;;;22.70;7.22;;;5.50;97.10;;;;;;4986714;28;20026;-89
2020/12/18 04:23:50;;;;;;;16.08;7.40;;;5.50;97.20;;;;;;4987188;28;20548;-90
2020/12/18 04:26:15;;;;;;;22.25;7.47;;;5.50;97.10;;;;;;4985283;28;20053;-90
2020/12/18 04:28:41;;;;;;;17.30;6.10;;;5.50;97.10;;;;;;4975794;28;20053;-89
2020/12/18 04:31:06;;;;;;;18.33;7.15;;;5.50;97.20;;;;;;4978894;28;20109;-89
2020/12/18 04:33:32;;;;;;;13.07;6.35;;;5.60;97.20;;;;;;4976717;28;20145;-90
2020/12/18 04:35:57;;;;;;;14.18;6.82;;;5.60;97.20;;;;;;4982081;28;20125;-90
2020/12/18 04:38:23;;;;;;;12.50;6.53;;;5.60;97.20;;;;;;4989342;28;20030;-89
2020/12/18 04:40:49;;;;;;;17.05;6.10;;;5.60;97.20;;;;;;4998465;28;20394;-89
2020/12/18 04:43:15;;;;;;;15.85;6.70;;;5.60;97.10;;;;;;4980394;28;20177;-89
2020/12/18 04:45:40;;;;;;;17.00;6.35;;;5.60;97.10;;;;;;4991737;28;20091;-88
2020/12/18 04:48:08;;;;;;;15.68;6.50;;;5.50;97.20;;;;;;4989639;28;20045;-89
2020/12/18 04:50:34;;;;;;;15.13;6.38;;;5.60;97.20;;;;;;4988627;28;20030;-89
2020/12/18 04:53:01;;;;;;;12.68;6.60;;;5.60;97.20;;;;;;4998168;28;20040;-88
2020/12/18 04:55:28;;;;;;;19.05;6.50;;;5.60;97.20;;;;;;4989617;28;20022;-90
2020/12/18 04:57:56;;;;;;;16.55;6.43;;;5.60;97.20;;;;;;4992326;28;20394;-90
2020/12/18 05:00:21;;;;;;;15.07;6.35;;;5.60;97.20;;;;;;4987076;28;20550;-91
2020/12/18 05:02:47;;;;;;;21.20;6.80;;;5.60;97.50;;;;;;4983571;28;20130;-89
2020/12/18 05:05:13;;;;;;;16.35;6.95;;;5.60;97.20;;;;;;4993166;28;20549;-90
2020/12/18 05:07:39;;;;;;;14.60;6.43;;;5.60;97.20;;;;;;4996281;28;20034;-90
2020/12/18 05:10:08;;;;;;;14.65;7.10;;;5.60;97.20;;;;;;4990080;28;20031;-90
2020/12/18 05:12:35;;;;;;;15.32;5.88;;;5.60;97.20;;;;;;4987422;28;20037;-90
2020/12/18 05:15:05;;;;;;;15.43;6.20;;;5.60;97.20;;;;;;4995438;28;20030;-89
2020/12/18 05:17:30;;;;;;;15.75;7.00;;;5.70;97.20;;;;;;4995834;28;20030;-89
2020/12/18 05:19:58;;;;;;;13.45;5.85;;;5.60;97.10;;;;;;4993135;28;20543;-88
2020/12/18 05:22:24;;;;;;;11.80;5.07;;;5.60;97.10;;;;;;4994907;28;20053;-88
2020/12/18 05:24:51;;;;;;;18.33;6.95;;;5.60;97.10;;;;;;4990973;28;20025;-89
2020/12/18 05:27:16;;;;;;;18.75;7.20;;;5.50;97.00;;;;;;4986926;28;20029;-89
2020/12/18 05:29:42;;;;;;;16.23;6.45;;;5.50;97.10;;;;;;4986576;28;20031;-90
2020/12/18 05:32:12;;;;;;;20.30;7.45;;;5.50;97.10;;;;;;4983530;28;20031;-90
2020/12/18 05:34:41;;;;;;;17.83;7.40;;;5.50;97.20;;;;;;4982416;28;20027;-89
2020/12/18 05:37:07;;;;;;;14.57;7.07;;;5.40;97.10;;;;;;4976677;28;20037;-89
2020/12/18 05:39:37;;;;;;;15.18;7.57;;;5.40;97.10;;;;;;4978840;28;20391;-89
2020/12/18 05:42:04;;;;;;;13.57;6.57;;;5.40;97.10;;;;;;4982606;28;20030;-90
2020/12/18 05:44:31;;;;;;;17.00;7.53;;;5.40;97.20;;;;;;4984594;28;20051;-89
2020/12/18 05:47:08;;;;;;;16.73;7.20;;;5.40;97.10;;;;;;4980110;28;20115;-89
2020/12/18 05:49:38;;;;;;;16.90;7.75;;;5.40;97.20;;;;;;4987479;28;20026;-90
2020/12/18 05:52:06;;;;;;;15.35;7.28;;;5.40;97.20;;;;;;4983970;28;20022;-88
2020/12/18 05:54:38;;;;;;;18.00;6.93;;;5.40;97.20;;;;;;4978874;28;20135;-90
2020/12/18 05:57:10;;;;;;;19.77;7.65;;;5.40;97.20;;;;;;4993979;28;20174;-89
2020/12/18 05:59:41;;;;;;;15.38;7.18;;;5.40;97.10;;;;;;4992705;28;20023;-89
2020/12/18 06:02:11;;;;;;;20.27;7.75;;;5.30;97.10;;;;;;5000832;28;20054;-89
2020/12/18 06:04:38;;;;;;;28.80;8.68;;;5.30;97.10;;;;;;4990027;28;20399;-89
2020/12/18 06:07:04;;;;;;;17.83;7.53;;;5.30;97.10;;;;;;4993418;28;20535;-90
2020/12/18 06:09:30;;;;;;;22.05;7.90;;;5.30;97.20;;;;;;4993499;28;20430;-89
2020/12/18 06:11:56;;;;;;;17.35;8.45;;;5.40;97.20;;;;;;4986869;28;20133;-89
2020/12/18 06:14:22;;;;;;;19.17;6.68;;;5.40;97.20;;;;;;4992264;28;20547;-89
2020/12/18 06:16:53;;;;;;;18.90;8.05;;;5.40;97.10;;;;;;4989002;28;20022;-89
2020/12/18 06:19:22;;;;;;;20.02;7.50;;;5.40;97.10;;;;;;4993696;28;20387;-89
2020/12/18 06:21:55;;;;;;;14.38;7.25;;;5.40;97.10;;;;;;4989998;28;20074;-89
2020/12/18 06:24:21;;;;;;;16.55;6.63;;;5.40;97.10;;;;;;4988462;28;20034;-89
2020/12/18 06:26:52;;;;;;;18.60;6.40;;;5.40;97.10;;;;;;4993046;28;20057;-89
2020/12/18 06:29:18;;;;;;;12.02;5.85;;;5.40;97.20;;;;;;4981226;28;20206;-89
2020/12/18 06:31:44;;;;;;;18.08;6.40;;;5.50;97.10;;;;;;4981341;28;20439;-90
2020/12/18 06:34:21;;;;;;;19.60;6.28;;;5.50;97.20;;;;;;4984446;28;20042;-90
2020/12/18 06:36:46;;;;;;;12.77;5.90;;;5.50;97.20;;;;;;4994865;28;20038;-90
2020/12/18 06:39:29;;;;;;;14.40;5.53;;;5.50;97.10;;;;;;4992667;28;20034;-89
2020/12/18 06:42:15;;;;;;;12.70;4.88;;;5.50;97.10;;;;;;4988042;28;20391;-90
2020/12/18 06:44:47;;;;;;;16.55;5.78;;;5.60;97.20;;;;;;4981452;28;20039;-89
2020/12/18 06:47:26;;;;;;;13.32;5.38;;;5.60;97.20;;;;;;4994355;28;20022;-88
2020/12/18 06:50:06;;;;;;;9.38;4.15;;;5.60;97.20;;;;;;4984959;28;20042;-89
2020/12/18 06:52:48;;;;;;;14.48;4.95;;;5.60;97.20;;;;;;4983234;28;20031;-89
2020/12/18 06:55:26;;;;;;;12.53;4.53;;;5.70;97.20;;;;;;4995264;28;20026;-89
2020/12/18 06:58:09;;;;;;;15.10;4.78;;;5.70;97.20;;;;;;4979321;28;20027;-89
2020/12/18 07:00:52;;;;;;;18.20;6.05;;;5.70;97.10;;;;;;4983897;28;20026;-89
2020/12/18 07:03:43;;;;;;;16.05;5.55;;;5.70;97.10;;;;;;4992423;28;20092;-89
2020/12/18 07:06:27;;;;;;;14.55;5.30;;;5.70;97.10;;;;;;4999098;28;20049;-89
2020/12/18 07:08:54;;;;;;;10.90;6.03;;;5.70;97.10;;;;;;4986217;28;20086;-90
2020/12/18 07:11:20;;;;;;;15.70;5.45;;;5.70;97.10;;;;;;4982997;28;20121;-90
2020/12/18 07:13:48;;;;;;;12.77;4.75;;;5.70;97.10;;;;;;4988491;28;20113;-90
2020/12/18 07:16:16;;;;;;;12.38;5.30;;;5.70;97.10;;;;;;4982507;28;20030;-89
2020/12/18 07:18:43;;;;;;;14.43;5.72;;;5.70;97.20;;;;;;4983415;28;20034;-89
2020/12/18 07:21:14;;;;;;;12.35;4.80;;;5.70;97.20;;;;;;4982498;28;20026;-90
2020/12/18 07:23:41;;;;;;;11.38;4.22;;;5.70;97.10;;;;;;4980933;28;20034;-89
2020/12/18 07:26:08;;;;;;;11.23;4.80;;;5.80;97.10;;;;;;4985750;28;20081;-89
2020/12/18 07:28:39;;;;;;;13.30;5.90;;;5.80;97.10;;;;;;4990687;28;20038;-88
2020/12/18 07:31:12;;;;;;;17.15;5.55;;;5.80;97.10;;;;;;4987083;28;20531;-90
2020/12/18 07:33:38;;;;;;;11.52;5.97;;;5.80;97.10;;;;;;4992282;28;20097;-89
2020/12/18 07:36:04;;;;;;;15.18;4.63;;;5.90;97.10;;;;;;4994054;28;20058;-90
2020/12/18 07:38:34;;;;;;;10.55;5.25;;;5.90;97.10;;;;;;4981877;28;21715;-89
2020/12/18 07:41:03;;;;;;;16.48;5.70;;;5.90;97.10;;;;;;4975149;28;20026;-89
2020/12/18 07:43:30;;;;;;;17.25;5.97;;;6.00;97.10;;;;;;4984446;28;20061;-89
2020/12/18 07:45:58;;;;;;;16.42;5.90;;;6.00;97.20;;;;;;4986513;28;20053;-89
2020/12/18 07:48:29;;;;;;;9.73;4.75;;;6.00;97.10;;;;;;4984257;28;20029;-90
2020/12/18 07:50:56;;;;;;;13.85;5.47;;;6.10;97.10;;;;;;4991184;28;20046;-89
2020/12/18 07:53:22;;;;;;;14.05;6.25;;;6.10;97.20;;;;;;4987961;28;20022;-89
2020/12/18 07:55:59;;;;;;;11.02;5.05;;;6.20;97.20;;;;;;4989520;28;20081;-90
2020/12/18 07:58:24;;;;;;;15.85;5.35;;;6.30;97.20;;;;;;5002092;28;20085;-90
2020/12/18 08:01:09;;;;;;;11.35;4.78;;;6.40;97.20;;;;;;4992769;28;20113;-88
2020/12/18 08:03:37;;;;;;;13.73;5.85;;;6.40;97.00;;;;;;4980775;28;20034;-87
2020/12/18 08:06:04;;;;;;;16.08;5.15;;;6.40;97.00;;;;;;4992220;28;20053;-87
2020/12/18 08:08:31;;;;;;;12.77;4.93;;;6.50;96.90;;;;;;4984634;28;20022;-87
2020/12/18 08:11:01;;;;;;;9.35;5.18;;;6.50;96.90;;;;;;4990752;28;20033;-88
2020/12/18 08:13:28;;;;;;;12.55;5.18;;;6.50;96.90;;;;;;4981677;28;20372;-89
2020/12/18 08:16:17;;;;;;;14.55;5.85;;;6.60;96.90;;;;;;4982225;28;20027;-89
2020/12/18 08:18:57;;;;;;;13.10;4.97;;;6.60;96.80;;;;;;4991576;28;20041;-89
2020/12/18 08:21:31;;;;;;;11.95;4.63;;;6.60;96.80;;;;;;4988898;28;20030;-89
2020/12/18 08:24:34;;;;;;;10.23;4.50;;;6.70;96.80;;;;;;4979350;28;20521;-90
2020/12/18 08:27:03;;;;;;;;;;;6.80;96.80;;;;;;4990751;28;20461;-90
2020/12/18 08:29:31;;;;;;;15.55;5.07;;;6.80;96.80;;;;;;4991275;28;20251;-90
2020/12/18 08:31:58;;;;;;;18.08;5.30;;;6.90;96.80;;;;;;4992529;28;20030;-90
2020/12/18 08:34:28;;;;;;;10.30;5.05;;;6.90;96.80;;;;;;4979031;28;20125;-90
2020/12/18 08:36:54;;;;;;;10.27;4.53;;;7.00;96.80;;;;;;4988949;28;20069;-89
2020/12/18 08:39:19;;;;;;;14.40;4.97;;;7.10;96.70;;;;;;4993342;28;20045;-88
2020/12/18 08:41:51;;;;;;;12.88;5.43;;;7.20;96.70;;;;;;4994234;28;20026;-88
2020/12/18 08:44:19;;;;;;;12.73;5.00;;;7.20;96.70;;;;;;4994357;28;20077;-89
2020/12/18 08:46:46;;;;;;;14.18;5.15;;;7.20;96.60;;;;;;4994400;28;20121;-89
2020/12/18 08:49:20;;;;;;;9.65;4.90;;;7.30;96.50;;;;;;4987111;28;20117;-88
2020/12/18 08:51:48;;;;;;;11.40;4.80;;;7.30;96.50;;;;;;4988339;28;20112;-89
2020/12/18 08:54:31;;;;;;;12.30;4.45;;;7.30;96.40;;;;;;4992045;28;20027;-88
2020/12/18 08:57:16;;;;;;;13.65;5.28;;;7.40;96.40;;;;;;4986790;28;20058;-89
2020/12/18 09:00:17;;;;;;;19.33;6.43;;;7.50;96.40;;;;;;4988207;28;20062;-89
2020/12/18 09:02:52;;;;;;;12.30;6.25;;;7.50;96.40;;;;;;4979285;28;20058;-88
2020/12/18 09:05:31;;;;;;;14.82;6.25;;;7.50;96.40;;;;;;5010801;28;20042;-88
2020/12/18 09:08:08;;;;;;;18.95;6.90;;;7.60;96.30;;;;;;4994068;28;20031;-88
2020/12/18 09:10:44;;;;;;;13.52;6.40;;;7.60;96.30;;;;;;4996565;28;20038;-88
2020/12/18 09:13:21;;;;;;;15.65;6.15;;;7.70;96.20;;;;;;4996286;28;20069;-88
2020/12/18 09:15:59;;;;;;;13.80;5.70;;;7.70;96.20;;;;;;4996511;28;20027;-89
2020/12/18 09:18:26;;;;;;;13.68;5.30;;;7.80;96.10;;;;;;4995487;28;20038;-88
2020/12/18 09:20:53;;;;;;;10.00;5.60;;;7.80;96.10;;;;;;4979993;28;20027;-88
2020/12/18 09:23:32;;;;;;;13.38;7.15;;;7.80;96.00;;;;;;4985062;28;20446;-88
2020/12/18 09:25:59;;;;;;;12.75;5.95;;;7.90;95.90;;;;;;4996355;28;20497;-88
2020/12/18 09:28:25;;;;;;;11.82;5.97;;;7.90;95.90;;;;;;4994048;28;20033;-88
2020/12/18 09:30:58;;;;;;;11.68;5.55;;;7.90;95.90;;;;;;4996540;28;20042;-88
2020/12/18 09:33:29;;;;;;;11.82;5.75;;;7.90;95.90;;;;;;4995888;28;20069;-88
2020/12/18 09:36:00;;;;;;;12.45;5.30;;;8.00;96.20;;;;;;4996475;28;20434;-87
2020/12/18 09:38:34;;;;;;;15.40;6.22;;;8.00;95.90;;;;;;4993527;28;20031;-89
2020/12/18 09:41:02;;;;;;;10.63;5.57;;;8.10;95.80;;;;;;4996173;28;20018;-88
2020/12/18 09:43:28;;;;;;;14.82;5.95;;;8.10;95.70;;;;;;4984102;28;20046;-87
2020/12/18 09:45:55;;;;;;;15.55;6.43;;;8.10;95.60;;;;;;4988426;28;20037;-87
2020/12/18 09:48:20;;;;;;;13.27;6.43;;;8.10;95.50;;;;;;4994953;28;20384;-88
2020/12/18 09:50:47;;;;;;;11.15;5.72;;;8.10;95.50;;;;;;4994794;28;20034;-87
2020/12/18 09:53:13;;;;;;;17.48;6.40;;;8.10;95.50;;;;;;4994974;28;20495;-88
2020/12/18 09:55:39;;;;;;;13.70;5.80;;;8.00;95.30;;;;;;4995403;28;20030;-88
2020/12/18 09:58:04;;;;;;;11.63;5.47;;;8.00;95.30;;;;;;4991228;28;20117;-87
2020/12/18 10:00:31;;;;;;;11.23;5.63;;;8.00;95.30;;;;;;4977329;28;20444;-87
2020/12/18 10:02:57;;;;;;;14.25;7.00;;;7.90;95.30;;;;;;4992371;28;20062;-87
2020/12/18 10:05:23;;;;;;;11.00;5.95;;;8.00;95.30;;;;;;4994563;28;20030;-87
2020/12/18 10:07:49;;;;;;;14.55;6.05;;;8.00;95.40;;;;;;4994101;28;20531;-88
2020/12/18 10:10:14;;;;;;;18.73;5.85;;;8.00;95.40;;;;;;4994958;28;20070;-87
2020/12/18 10:12:40;;;;;;;12.32;5.70;;;8.00;95.40;;;;;;4995104;28;20027;-87
2020/12/18 10:15:05;;;;;;;14.32;6.15;;;8.10;95.40;;;;;;4995322;28;20030;-87
2020/12/18 10:17:31;;;;;;;12.80;5.30;;;8.10;95.40;;;;;;4994523;28;20026;-87
2020/12/18 10:19:57;;;;;;;14.27;5.28;;;8.20;95.40;;;;;;4994616;28;20040;-87
2020/12/18 10:22:22;;;;;;;16.15;4.97;;;8.20;95.40;;;;;;4996133;28;20479;-88
2020/12/18 10:24:48;;;;;;;10.80;4.55;;;8.20;95.30;;;;;;4995057;28;20510;-87
2020/12/18 10:27:13;;;;;;;10.23;4.85;;;8.30;95.30;;;;;;4993956;28;20038;-87
2020/12/18 10:29:39;;;;;;;8.25;4.68;;;8.40;95.20;;;;;;4994847;28;20391;-87
2020/12/18 10:32:05;;;;;;;11.95;4.28;;;8.40;95.10;;;;;;4983383;28;20126;-87
2020/12/18 10:34:31;;;;;;;12.90;4.68;;;8.40;95.10;;;;;;4977123;28;20059;-87
2020/12/18 10:36:57;;;;;;;12.32;4.95;;;8.50;95.00;;;;;;4986897;28;20038;-87
2020/12/18 10:39:23;;;;;;;11.15;4.90;;;8.50;95.00;;;;;;4977276;28;20030;-87
2020/12/18 10:41:54;;;;;;;16.98;5.35;;;8.50;94.90;;;;;;4982098;28;20027;-87
2020/12/18 10:44:20;;;;;;;7.70;4.32;;;8.60;94.80;;;;;;4979595;28;20051;-87
2020/12/18 10:46:49;;;;;;;10.13;4.30;;;8.60;94.70;;;;;;4993789;28;20383;-88
2020/12/18 10:49:17;;;;;;;11.82;4.65;;;8.60;94.60;;;;;;4991496;28;20026;-87
2020/12/18 10:51:44;;;;;;;11.38;4.85;;;8.60;94.60;;;;;;4984204;28;20023;-88
2020/12/18 10:54:10;;;;;;;8.27;4.65;;;8.70;94.60;;;;;;4993357;28;20050;-88
2020/12/18 10:56:43;;;;;;;10.80;4.53;;;8.70;94.50;;;;;;4993974;28;20035;-87
2020/12/18 10:59:10;;;;;;;11.43;4.43;;;8.80;94.40;;;;;;4993592;28;20026;-89
2020/12/18 11:01:36;;;;;;;10.18;4.25;;;8.80;94.40;;;;;;4991909;28;20022;-88
2020/12/18 11:04:02;;;;;;;10.65;4.97;;;8.80;94.40;;;;;;4993803;28;20146;-89
2020/12/18 11:06:28;;;;;;;11.00;4.20;;;8.80;94.30;;;;;;4998017;28;20030;-88
2020/12/18 11:08:53;;;;;;;13.65;5.10;;;8.90;94.40;;;;;;4990360;28;20104;-88
2020/12/18 11:11:19;;;;;;;11.43;4.88;;;8.90;94.30;;;;;;4990607;28;20057;-88
2020/12/18 11:13:45;;;;;;;11.07;4.68;;;9.00;94.30;;;;;;4993822;28;20026;-89
2020/12/18 11:16:11;;;;;;;10.10;4.32;;;9.00;94.20;;;;;;4993648;28;20026;-88
2020/12/18 11:18:37;;;;;;;11.43;4.18;;;9.00;94.20;;;;;;4982035;28;20141;-89
2020/12/18 11:21:07;;;;;;;13.70;4.22;;;9.10;94.00;;;;;;4993893;28;20018;-89
2020/12/18 11:23:32;;;;;;;11.10;4.38;;;9.10;94.00;;;;;;4978150;28;20035;-88
2020/12/18 11:25:58;;;;;;;10.93;4.47;;;9.20;94.00;;;;;;4995237;28;20030;-88
2020/12/18 11:28:24;;;;;;;8.95;3.47;;;9.30;93.90;;;;;;4992275;28;20042;-89
2020/12/18 11:30:49;;;;;;;14.35;4.05;;;9.30;93.80;;;;;;4989192;28;20062;-88
2020/12/18 11:33:15;;;;;;;11.70;3.65;;;9.40;93.80;;;;;;4976956;28;20035;-86
2020/12/18 11:35:41;;;;;;;12.63;3.75;;;9.40;93.70;;;;;;4991209;28;20446;-89
2020/12/18 11:38:07;;;;;;;8.95;4.05;;;9.50;93.60;;;;;;4990230;28;20089;-86
2020/12/18 11:40:33;;;;;;;10.57;3.60;;;9.50;93.60;;;;;;4986209;28;20077;-88
2020/12/18 11:42:58;;;;;;;8.13;3.40;;;9.60;93.50;;;;;;4991173;28;20049;-88
2020/12/18 11:45:24;;;;;;;8.15;3.10;;;9.70;93.20;;;;;;4975947;28;20055;-86
2020/12/18 11:47:50;;;;;;;8.55;2.83;;;9.80;93.20;;;;;;4981952;28;20026;-88
2020/12/18 11:50:16;;;;;;;13.75;2.47;;;9.80;93.10;;;;;;4978916;28;20019;-86
2020/12/18 11:52:41;;;;;;;10.32;2.00;;;9.90;93.10;;;;;;4978558;28;20033;-87
2020/12/18 11:55:07;;;;;;;6.50;2.08;;;10.00;93.00;;;;;;4982970;28;20026;-88
2020/12/18 11:57:32;;;;;;;11.30;2.45;;;10.10;92.70;;;;;;4998662;28;20105;-88
2020/12/18 11:59:58;;;;;;;7.68;1.90;;;10.10;92.60;;;;;;4984482;28;20471;-88
2020/12/18 12:02:23;;;;;;;9.32;1.80;;;10.20;92.50;;;;;;4982490;28;20035;-88
2020/12/18 12:04:49;;;;;;;3.85;1.00;;;10.30;92.20;;;;;;4975564;28;20041;-88
2020/12/18 12:07:14;;;;;;;8.25;1.35;;;10.30;92.10;;;;;;4984649;28;20522;-88
2020/12/18 12:09:40;;;;;;;3.60;0.70;;;10.40;92.00;;;;;;4982722;28;20117;-88
2020/12/18 12:12:12;;;;;;;6.47;0.70;;;10.40;91.90;;;;;;4986674;28;20161;-88
2020/12/18 12:14:38;;;;;;;10.13;1.23;;;10.50;91.80;;;;;;4988102;28;20027;-88
2020/12/18 12:17:04;;;;;;;7.80;1.00;;;10.60;91.80;;;;;;4990423;28;20042;-88
2020/12/18 12:19:30;;;;;;;4.40;0.90;;;10.60;91.70;;;;;;4986034;28;20030;-88
2020/12/18 12:21:56;;;;;;;6.90;0.70;;;10.70;91.60;;;;;;4986145;28;20030;-87
2020/12/18 12:24:21;;;;;;;3.88;0.70;;;10.80;91.40;;;;;;4988936;28;20502;-88
2020/12/18 12:26:48;;;;;;;5.97;0.60;;;10.80;90.90;;;;;;4989906;28;20031;-89
2020/12/18 12:29:14;;;;;;;4.35;0.75;;;10.90;90.60;;;;;;4983410;28;20031;-88
2020/12/18 12:31:40;;;;;;;3.88;0.70;;;10.90;90.60;;;;;;4987251;28;20041;-88
2020/12/18 12:34:06;;;;;;;9.32;0.90;;;11.00;90.50;;;;;;4982137;28;20391;-89
2020/12/18 12:36:32;;;;;;;7.03;0.70;;;11.00;90.30;;;;;;4989135;28;20074;-89
2020/12/18 12:38:58;;;;;;;4.32;0.75;;;11.10;90.10;;;;;;4996373;28;20027;-89
2020/12/18 12:41:24;;;;;;;5.32;0.60;;;11.10;89.80;;;;;;4995015;28;20447;-88
2020/12/18 12:43:50;;;;;;;4.65;0.63;;;11.10;89.40;;;;;;4986270;28;20047;-89
2020/12/18 12:46:16;;;;;;;3.72;0.55;;;11.20;88.90;;;;;;4992503;28;20027;-89
2020/12/18 12:48:42;;;;;;;5.28;0.57;;;11.20;88.50;;;;;;4998132;28;20545;-89
2020/12/18 12:51:08;;;;;;;5.47;0.70;;;11.20;88.60;;;;;;4995542;28;20018;-89